Astarte II — ELOU4 — position and weather

sailwx.info

Track history (hours):
 
Tides and Currents Weather Stations Pressure Air Temp Water Temp Dewpoint Dewpoint Depression Visibility Wind Speed Wind Dir Waves Ship Positions

Astarte II

Last reported at 2017-Sep-25 08:00 UTC. Time now 2017-Sep-25 08:22 UTC.
Position N 37°56' E 023°41'.

Length 65 m; draft 4.5 m.

Type: Pleasure craft. MMSI: 636009659.

Date/timePositionNaut miles runAvg speedWind from/ knotsBaromVisibWave heightAir tempDewpointWater temp
2017-Sep-25 08:00N 37°56' E 023°41'0 0.0
2017-Sep-25 07:30N 37°56' E 023°41'0 0.0
2017-Sep-25 07:00N 37°56' E 023°41'0 0.0
2017-Sep-25 06:30N 37°56' E 023°41'0 0.0
2017-Sep-25 06:00N 37°56' E 023°41'0 0.0
2017-Sep-25 05:30N 37°56' E 023°41'0 0.0
2017-Sep-25 05:00N 37°56' E 023°41'0 0.0
2017-Sep-25 04:30N 37°56' E 023°41'0 0.0
2017-Sep-25 04:00N 37°56' E 023°41'0 0.0
2017-Sep-25 03:30N 37°56' E 023°41'0 0.0
2017-Sep-25 03:00N 37°56' E 023°41'0 0.0
2017-Sep-25 02:30N 37°56' E 023°41'0 0.0
2017-Sep-25 02:00N 37°56' E 023°41'0 0.0
2017-Sep-25 01:30N 37°56' E 023°41'0 0.0
2017-Sep-25 01:00N 37°56' E 023°41'0 0.0
2017-Sep-25 00:30N 37°56' E 023°41'0 0.0
2017-Sep-25 00:00N 37°56' E 023°41'0 0.0
2017-Sep-24 23:30N 37°56' E 023°41'0 0.0
2017-Sep-24 23:00N 37°56' E 023°41'0 0.0
2017-Sep-24 22:30N 37°56' E 023°41'0 0.0
2017-Sep-24 22:00N 37°56' E 023°41'0 0.0
2017-Sep-24 21:30N 37°56' E 023°41'0 0.0
2017-Sep-24 21:00N 37°56' E 023°41'0 0.0
2017-Sep-24 20:30N 37°56' E 023°41'0 0.0
2017-Sep-24 20:00N 37°56' E 023°41'0 0.0
2017-Sep-24 19:30N 37°56' E 023°41'0 0.0
2017-Sep-24 19:00N 37°56' E 023°41'0 0.0
2017-Sep-24 18:30N 37°56' E 023°41'0 0.0
2017-Sep-24 18:00N 37°56' E 023°41'0 0.0
2017-Sep-24 17:30N 37°56' E 023°41'0 0.0
2017-Sep-24 17:00N 37°56' E 023°41'0 0.0
2017-Sep-24 16:30N 37°56' E 023°41'0 0.0
2017-Sep-24 16:00N 37°56' E 023°41'0 0.0
2017-Sep-24 15:30N 37°56' E 023°41'0 0.0
2017-Sep-24 15:00N 37°56' E 023°41'0 0.0
2017-Sep-24 14:30N 37°56' E 023°41'0 0.6
2017-Sep-24 14:00N 37°56' E 023°41'4 8.6
2017-Sep-24 13:31N 37°53' E 023°37'714.1
2017-Sep-24 13:00N 37°49' E 023°30'713.9
2017-Sep-24 12:31N 37°45' E 023°23'5 9.5
2017-Sep-24 12:00N 37°41' E 023°19'0 0.0
2017-Sep-24 11:30N 37°41' E 023°19'0 0.0
2017-Sep-24 11:00N 37°41' E 023°19'0 0.0
2017-Sep-24 10:21N 37°41' E 023°19'0 0.0
2017-Sep-24 09:53N 37°41' E 023°19'0 0.0
2017-Sep-24 09:29N 37°41' E 023°19'5 9.3
2017-Sep-24 09:00N 37°43' E 023°24'2 3.2
2017-Sep-24 08:30N 37°44' E 023°25'0 0.0
2017-Sep-24 08:00N 37°44' E 023°25'0 0.0
2017-Sep-24 07:30N 37°44' E 023°25'0 0.0
2017-Sep-24 07:00N 37°44' E 023°25'0 0.0
2017-Sep-24 06:30N 37°44' E 023°25'3 6.8
2017-Sep-24 06:00N 37°41' E 023°25'714.1
2017-Sep-24 05:30N 37°37' E 023°33'714.1
2017-Sep-24 05:00N 37°33' E 023°40'  
2017-Sep-17 04:04N 37°23' E 023°57'114.8
2017-Sep-17 04:00N 37°24' E 023°56'714.4
2017-Sep-17 03:30N 37°28' E 023°48'713.9
2017-Sep-17 03:00N 37°32' E 023°41'713.9
2017-Sep-17 02:30N 37°36' E 023°34'713.8
2017-Sep-17 02:00N 37°40' E 023°27'3 1.3
2017-Sep-16 23:30N 37°43' E 023°27'0 0.0
2017-Sep-16 19:25N 37°43' E 023°27'0 0.0
2017-Sep-16 18:53N 37°43' E 023°27'0 0.0
2017-Sep-16 18:17N 37°43' E 023°27'0 0.0
2017-Sep-16 17:59N 37°43' E 023°27'0 0.0
2017-Sep-16 17:16N 37°43' E 023°27'0 0.0
2017-Sep-16 16:54N 37°43' E 023°27'0 0.0
2017-Sep-16 16:30N 37°43' E 023°27'0 0.0
2017-Sep-16 15:44N 37°43' E 023°27'0 0.1
2017-Sep-16 15:21N 37°43' E 023°27'0 0.1
2017-Sep-16 14:54N 37°43' E 023°27'0 0.0
2017-Sep-16 14:12N 37°43' E 023°27'0 0.1
2017-Sep-16 13:58N 37°43' E 023°27'0 0.0
2017-Sep-16 10:20N 37°43' E 023°27'310.6
2017-Sep-16 10:01N 37°45' E 023°23'713.8
2017-Sep-16 09:30N 37°48' E 023°15'714.0
2017-Sep-16 09:00N 37°51' E 023°08'610.6
2017-Sep-16 08:24N 37°55' E 023°01'0 0.0
2017-Sep-16 07:55N 37°55' E 023°01'0 0.0
2017-Sep-16 07:20N 37°55' E 023°01'0 0.1
2017-Sep-16 06:55N 37°55' E 023°01'0 0.0
2017-Sep-16 06:21N 37°55' E 023°01'0 0.0
2017-Sep-16 05:59N 37°55' E 023°01'0 0.0
2017-Sep-16 05:17N 37°55' E 023°01'  
Track history (hours):
 
Tides and Currents Weather Stations Pressure Air Temp Water Temp Dewpoint Dewpoint Depression Visibility Wind Speed Wind Dir Waves Ship Positions

Astarte II

Last reported at 2017-Sep-25 08:00 UTC. Time now 2017-Sep-25 08:22 UTC.
Position N 37°56' E 023°41'.

Length 65 m; draft 4.5 m.

Type: Pleasure craft. MMSI: 636009659.

Date/timePositionNaut miles runAvg speedWind from/ knotsBaromVisibWave heightAir tempDewpointWater temp
2017-Sep-25 08:00N 37°56' E 023°41'0 0.0
2017-Sep-25 07:30N 37°56' E 023°41'0 0.0
2017-Sep-25 07:00N 37°56' E 023°41'0 0.0
2017-Sep-25 06:30N 37°56' E 023°41'0 0.0
2017-Sep-25 06:00N 37°56' E 023°41'0 0.0
2017-Sep-25 05:30N 37°56' E 023°41'0 0.0
2017-Sep-25 05:00N 37°56' E 023°41'0 0.0
2017-Sep-25 04:30N 37°56' E 023°41'0 0.0
2017-Sep-25 04:00N 37°56' E 023°41'0 0.0
2017-Sep-25 03:30N 37°56' E 023°41'0 0.0
2017-Sep-25 03:00N 37°56' E 023°41'0 0.0
2017-Sep-25 02:30N 37°56' E 023°41'0 0.0
2017-Sep-25 02:00N 37°56' E 023°41'0 0.0
2017-Sep-25 01:30N 37°56' E 023°41'0 0.0
2017-Sep-25 01:00N 37°56' E 023°41'0 0.0
2017-Sep-25 00:30N 37°56' E 023°41'0 0.0
2017-Sep-25 00:00N 37°56' E 023°41'0 0.0
2017-Sep-24 23:30N 37°56' E 023°41'0 0.0
2017-Sep-24 23:00N 37°56' E 023°41'0 0.0
2017-Sep-24 22:30N 37°56' E 023°41'0 0.0
2017-Sep-24 22:00N 37°56' E 023°41'0 0.0
2017-Sep-24 21:30N 37°56' E 023°41'0 0.0
2017-Sep-24 21:00N 37°56' E 023°41'0 0.0
2017-Sep-24 20:30N 37°56' E 023°41'0 0.0
2017-Sep-24 20:00N 37°56' E 023°41'0 0.0
2017-Sep-24 19:30N 37°56' E 023°41'0 0.0
2017-Sep-24 19:00N 37°56' E 023°41'0 0.0
2017-Sep-24 18:30N 37°56' E 023°41'0 0.0
2017-Sep-24 18:00N 37°56' E 023°41'0 0.0
2017-Sep-24 17:30N 37°56' E 023°41'0 0.0
2017-Sep-24 17:00N 37°56' E 023°41'0 0.0
2017-Sep-24 16:30N 37°56' E 023°41'0 0.0
2017-Sep-24 16:00N 37°56' E 023°41'0 0.0
2017-Sep-24 15:30N 37°56' E 023°41'0 0.0
2017-Sep-24 15:00N 37°56' E 023°41'0 0.0
2017-Sep-24 14:30N 37°56' E 023°41'0 0.6
2017-Sep-24 14:00N 37°56' E 023°41'4 8.6
2017-Sep-24 13:31N 37°53' E 023°37'714.1
2017-Sep-24 13:00N 37°49' E 023°30'713.9
2017-Sep-24 12:31N 37°45' E 023°23'5 9.5
2017-Sep-24 12:00N 37°41' E 023°19'0 0.0
2017-Sep-24 11:30N 37°41' E 023°19'0 0.0
2017-Sep-24 11:00N 37°41' E 023°19'0 0.0
2017-Sep-24 10:21N 37°41' E 023°19'0 0.0
2017-Sep-24 09:53N 37°41' E 023°19'0 0.0
2017-Sep-24 09:29N 37°41' E 023°19'5 9.3
2017-Sep-24 09:00N 37°43' E 023°24'2 3.2
2017-Sep-24 08:30N 37°44' E 023°25'0 0.0
2017-Sep-24 08:00N 37°44' E 023°25'0 0.0
2017-Sep-24 07:30N 37°44' E 023°25'0 0.0
2017-Sep-24 07:00N 37°44' E 023°25'0 0.0
2017-Sep-24 06:30N 37°44' E 023°25'3 6.8
2017-Sep-24 06:00N 37°41' E 023°25'714.1
2017-Sep-24 05:30N 37°37' E 023°33'714.1
2017-Sep-24 05:00N 37°33' E 023°40'  
2017-Sep-17 04:04N 37°23' E 023°57'114.8
2017-Sep-17 04:00N 37°24' E 023°56'714.4
2017-Sep-17 03:30N 37°28' E 023°48'713.9
2017-Sep-17 03:00N 37°32' E 023°41'713.9
2017-Sep-17 02:30N 37°36' E 023°34'713.8
2017-Sep-17 02:00N 37°40' E 023°27'3 1.3
2017-Sep-16 23:30N 37°43' E 023°27'0 0.0
2017-Sep-16 19:25N 37°43' E 023°27'0 0.0
2017-Sep-16 18:53N 37°43' E 023°27'0 0.0
2017-Sep-16 18:17N 37°43' E 023°27'0 0.0
2017-Sep-16 17:59N 37°43' E 023°27'0 0.0
2017-Sep-16 17:16N 37°43' E 023°27'0 0.0
2017-Sep-16 16:54N 37°43' E 023°27'0 0.0
2017-Sep-16 16:30N 37°43' E 023°27'0 0.0
2017-Sep-16 15:44N 37°43' E 023°27'0 0.1
2017-Sep-16 15:21N 37°43' E 023°27'0 0.1
2017-Sep-16 14:54N 37°43' E 023°27'0 0.0
2017-Sep-16 14:12N 37°43' E 023°27'0 0.1
2017-Sep-16 13:58N 37°43' E 023°27'0 0.0
2017-Sep-16 10:20N 37°43' E 023°27'310.6
2017-Sep-16 10:01N 37°45' E 023°23'713.8
2017-Sep-16 09:30N 37°48' E 023°15'714.0
2017-Sep-16 09:00N 37°51' E 023°08'610.6
2017-Sep-16 08:24N 37°55' E 023°01'0 0.0
2017-Sep-16 07:55N 37°55' E 023°01'0 0.0
2017-Sep-16 07:20N 37°55' E 023°01'0 0.1
2017-Sep-16 06:55N 37°55' E 023°01'0 0.0
2017-Sep-16 06:21N 37°55' E 023°01'0 0.0
2017-Sep-16 05:59N 37°55' E 023°01'0 0.0
2017-Sep-16 05:17N 37°55' E 023°01'  

Dump ship's entire track history